Time;durP1;ratioP1;P1;durP2;ratioP2;P2;SDS_P1;SDS_P2;PMS_P1;PMS_P2;Temp;Humidity;BMP_temperature;BMP_pressure;BME280_temperature;BME280_humidity;BME280_pressure;Samples;Min_cycle;Max_cycle;Signal;HPM_P1;HPM_P2
2022/03/03 00:00:20;;;;;;;8.17;7.27;;;;;;;3.65;58.46;102053.16;5134509;27;20331;-37
2022/03/03 00:02:46;;;;;;;9.33;7.63;;;;;;;3.63;57.30;102061.34;5133870;27;20078;-37
2022/03/03 00:05:12;;;;;;;8.82;7.30;;;;;;;3.66;59.72;102060.19;5134173;27;20031;-37
2022/03/03 00:07:38;;;;;;;9.63;7.57;;;;;;;3.63;58.12;102060.50;5134151;27;20027;-37
2022/03/03 00:10:05;;;;;;;9.77;7.22;;;;;;;3.49;60.26;102049.38;5134096;27;20490;-37
2022/03/03 00:12:30;;;;;;;9.30;7.80;;;;;;;3.49;61.43;102046.69;5133835;27;20023;-37
2022/03/03 00:14:56;;;;;;;10.00;7.93;;;;;;;3.44;57.95;102064.19;5134413;27;20031;-37
2022/03/03 00:17:21;;;;;;;11.30;8.20;;;;;;;3.45;58.10;102063.19;5133696;27;20273;-37
2022/03/03 00:19:46;;;;;;;12.53;9.33;;;;;;;3.49;59.90;102053.88;5133994;27;20459;-37
2022/03/03 00:22:12;;;;;;;10.20;7.87;;;;;;;3.43;58.74;102050.00;5133949;27;20471;-37
2022/03/03 00:24:37;;;;;;;9.73;7.60;;;;;;;3.45;59.44;102050.66;5133953;27;20449;-37
2022/03/03 00:27:04;;;;;;;12.33;8.63;;;;;;;3.45;59.02;102057.84;5133667;27;20031;-37
2022/03/03 00:29:30;;;;;;;12.40;8.27;;;;;;;3.47;58.89;102058.56;5134507;27;20051;-37
2022/03/03 00:31:55;;;;;;;14.43;9.10;;;;;;;3.44;58.30;102050.81;5133841;27;20059;-37
2022/03/03 00:34:21;;;;;;;10.93;8.83;;;;;;;3.43;59.29;102049.16;5133908;27;20023;-37
2022/03/03 00:36:46;;;;;;;10.83;8.37;;;;;;;3.41;60.24;102051.13;5133578;27;20391;-37
2022/03/03 00:39:11;;;;;;;11.60;8.03;;;;;;;3.42;61.48;102055.50;5134042;27;20067;-37
2022/03/03 00:41:37;;;;;;;10.93;7.60;;;;;;;3.30;62.10;102045.03;5134216;27;20533;-37
2022/03/03 00:44:03;;;;;;;11.50;8.80;;;;;;;3.30;60.67;102055.72;5133168;27;20433;-37
2022/03/03 00:46:28;;;;;;;10.60;8.05;;;;;;;3.35;64.50;102048.09;5133403;27;20023;-37
2022/03/03 00:48:55;;;;;;;13.23;9.13;;;;;;;3.32;62.76;102044.91;5133475;27;20027;-36
2022/03/03 00:51:21;;;;;;;13.95;10.48;;;;;;;3.13;59.52;102045.06;5133379;27;20060;-37
2022/03/03 00:53:47;;;;;;;12.18;8.98;;;;;;;3.19;61.35;102039.09;5133085;27;20478;-37
2022/03/03 00:56:13;;;;;;;11.02;8.60;;;;;;;3.19;63.72;102039.09;5133345;27;20142;-37
2022/03/03 00:58:39;;;;;;;10.25;9.10;;;;;;;3.12;60.89;102041.50;5136268;27;20023;-37
2022/03/03 01:01:04;;;;;;;10.98;9.05;;;;;;;3.18;63.14;102032.91;5137620;27;20031;-37
2022/03/03 01:03:30;;;;;;;12.80;8.67;;;;;;;3.18;64.09;102040.94;5137621;27;20391;-35
2022/03/03 01:05:55;;;;;;;13.90;9.20;;;;;;;3.11;63.40;102039.84;5137304;27;20019;-36
2022/03/03 01:08:20;;;;;;;12.93;9.20;;;;;;;3.03;62.66;102024.59;5136956;27;20489;-36
2022/03/03 01:10:46;;;;;;;13.37;9.60;;;;;;;3.04;62.85;102038.78;5137449;27;20050;-36
2022/03/03 01:13:11;;;;;;;11.50;9.10;;;;;;;3.08;63.10;102046.34;5136992;27;20118;-35
2022/03/03 01:15:37;;;;;;;9.10;7.80;;;;;;;3.10;64.78;102039.00;5137150;27;20023;-36
2022/03/03 01:18:03;;;;;;;10.43;7.67;;;;;;;3.06;65.37;102039.47;5137484;27;20030;-36
2022/03/03 01:20:28;;;;;;;9.52;7.60;;;;;;;3.05;67.23;102035.13;5137034;27;20038;-36
2022/03/03 01:22:54;;;;;;;10.63;8.27;;;;;;;2.98;65.28;102028.72;5137204;27;20210;-36
2022/03/03 01:25:20;;;;;;;10.98;9.00;;;;;;;2.90;64.33;102031.28;5136873;27;20062;-36
2022/03/03 01:27:45;;;;;;;9.97;8.23;;;;;;;2.94;64.39;102032.69;5135586;27;20443;-36
2022/03/03 01:30:11;;;;;;;9.98;8.07;;;;;;;2.90;63.48;102031.28;5137220;27;20435;-36
2022/03/03 01:32:37;;;;;;;12.23;9.05;;;;;;;2.88;64.57;102034.13;5136722;27;20027;-36
2022/03/03 01:35:03;;;;;;;11.52;8.23;;;;;;;2.91;67.48;102022.28;5136858;27;20029;-36
2022/03/03 01:37:28;;;;;;;9.60;7.63;;;;;;;2.92;68.40;102021.28;5136400;27;20043;-36
2022/03/03 01:39:53;;;;;;;9.97;7.93;;;;;;;2.69;67.88;101995.03;5136598;27;20463;-36
2022/03/03 01:42:19;;;;;;;12.07;9.43;;;;;;;2.83;67.95;102009.66;5136510;27;20047;-36
2022/03/03 01:44:46;;;;;;;11.37;9.43;;;;;;;2.75;66.30;102010.44;5136883;27;20058;-36
2022/03/03 01:47:20;;;;;;;11.32;8.75;;;;;;;2.66;66.11;102003.34;5136540;27;20031;-36
2022/03/03 01:49:47;;;;;;;10.82;8.25;;;;;;;2.67;68.53;102005.00;5136879;27;20031;-35
2022/03/03 01:52:12;;;;;;;11.32;8.45;;;;;;;2.66;67.97;102003.34;5136030;27;20027;-36
2022/03/03 01:54:38;;;;;;;10.75;8.20;;;;;;;2.64;69.00;101997.31;5136922;27;20038;-36
2022/03/03 01:57:04;;;;;;;11.37;8.40;;;;;;;2.63;69.17;102000.13;5136240;27;20406;-36
2022/03/03 01:59:31;;;;;;;8.88;7.50;;;;;;;2.59;69.07;101991.59;5135364;27;20054;-36
2022/03/03 02:01:56;;;;;;;10.73;8.77;;;;;;;2.56;69.65;101983.88;5136839;27;20035;-36
2022/03/03 02:04:21;;;;;;;10.87;9.13;;;;;;;2.43;67.97;101970.88;5136888;27;20544;-36
2022/03/03 02:06:47;;;;;;;11.33;8.53;;;;;;;2.51;70.26;101984.31;5136216;27;20038;-36
2022/03/03 02:09:12;;;;;;;11.40;8.30;;;;;;;2.52;70.61;101985.16;5136064;27;20387;-35
2022/03/03 02:11:37;;;;;;;11.27;9.37;;;;;;;2.40;69.04;101981.88;5136447;27;20118;-35
2022/03/03 02:14:04;;;;;;;10.73;8.00;;;;;;;2.44;71.55;101972.56;5136167;27;20459;-35
2022/03/03 02:16:30;;;;;;;11.98;8.20;;;;;;;2.46;70.73;101983.09;5135642;27;20096;-35
2022/03/03 02:18:55;;;;;;;10.73;8.82;;;;;;;2.33;66.58;101967.41;5136347;27;20068;-35
2022/03/03 02:21:21;;;;;;;10.47;8.50;;;;;;;2.35;66.72;101973.47;5136197;27;20031;-36
2022/03/03 02:23:47;;;;;;;10.95;8.25;;;;;;;2.35;67.16;101980.63;5135456;27;20035;-36
2022/03/03 02:26:18;;;;;;;10.97;8.03;;;;;;;2.37;69.21;101986.66;5136396;27;20035;-36
2022/03/03 02:28:44;;;;;;;10.13;8.20;;;;;;;2.31;68.22;101969.41;5135694;27;20031;-36
2022/03/03 02:31:09;;;;;;;10.35;8.25;;;;;;;2.22;68.49;101967.63;5135972;27;20080;-36
2022/03/03 02:33:35;;;;;;;9.73;8.73;;;;;;;2.10;66.66;101961.66;5136284;27;20023;-36
2022/03/03 02:36:19;;;;;;;12.20;8.02;;;;;;;2.17;66.23;101977.91;5135951;27;20321;-36
2022/03/03 02:38:49;;;;;;;12.27;9.23;;;;;;;2.17;67.71;101977.91;5135842;27;20043;-36
2022/03/03 02:41:15;;;;;;;10.35;9.00;;;;;;;2.01;65.96;101975.88;5135632;27;20046;-36
2022/03/03 02:43:41;;;;;;;10.77;8.90;;;;;;;2.13;68.60;101979.19;5135441;27;20027;-36
2022/03/03 02:46:07;;;;;;;10.95;9.00;;;;;;;2.12;68.76;101974.84;5135837;27;20259;-36
2022/03/03 02:48:32;;;;;;;10.27;8.43;;;;;;;2.12;69.85;101972.19;5135028;27;20030;-36
2022/03/03 02:50:58;;;;;;;11.30;8.40;;;;;;;2.14;69.08;101973.69;5135989;27;20035;-36
2022/03/03 02:53:23;;;;;;;13.00;8.63;;;;;;;2.01;66.61;101970.56;5134832;27;20304;-36
2022/03/03 02:55:49;;;;;;;10.57;8.82;;;;;;;1.86;67.83;101950.69;5135344;27;20051;-36
2022/03/03 02:58:14;;;;;;;12.10;9.70;;;;;;;1.95;67.25;101957.78;5134768;27;20023;-36
2022/03/03 03:00:43;;;;;;;9.87;8.60;;;;;;;1.88;67.15;101956.69;5134803;27;20024;-36
2022/03/03 03:03:11;;;;;;;12.63;9.25;;;;;;;1.92;66.52;101968.75;5134874;27;20039;-36
2022/03/03 03:05:36;;;;;;;14.05;9.52;;;;;;;1.90;66.72;101962.72;5135197;27;20031;-36
2022/03/03 03:08:03;;;;;;;13.43;8.83;;;;;;;1.86;68.58;101961.34;5135183;27;20046;-36
2022/03/03 03:10:28;;;;;;;;;;;;;;;1.99;66.45;101973.34;5135153;27;20705;-35
2022/03/03 03:12:54;;;;;;;9.55;8.05;;;;;;;1.88;66.75;101970.03;5135149;27;20006;-35
2022/03/03 03:15:19;;;;;;;13.43;9.30;;;;;;;1.86;65.69;101972.03;5135223;27;20031;-35
2022/03/03 03:17:45;;;;;;;14.23;9.55;;;;;;;1.83;66.48;101972.31;5134896;27;20306;-35
2022/03/03 03:20:11;;;;;;;10.77;8.87;;;;;;;1.85;68.55;101964.97;5135260;27;20031;-36
2022/03/03 03:22:37;;;;;;;10.52;9.18;;;;;;;1.82;68.13;101959.97;5134501;27;20043;-36
2022/03/03 03:25:04;;;;;;;11.02;8.95;;;;;;;1.77;66.65;101955.91;5134537;27;20031;-36
2022/03/03 03:27:29;;;;;;;10.88;8.65;;;;;;;1.82;70.12;101949.28;5134419;27;20027;-36
2022/03/03 03:29:55;;;;;;;10.47;8.67;;;;;;;1.76;67.72;101940.91;5135236;27;20077;-36
2022/03/03 03:32:20;;;;;;;12.00;9.23;;;;;;;1.75;66.92;101943.69;5134360;27;20035;-36
2022/03/03 03:34:45;;;;;;;10.97;9.13;;;;;;;1.73;67.54;101945.66;5134879;27;20043;-36
2022/03/03 03:37:11;;;;;;;12.77;9.40;;;;;;;1.67;66.45;101948.94;5134514;27;20488;-36
2022/03/03 03:39:36;;;;;;;10.90;9.10;;;;;;;1.65;67.23;101942.88;5133905;27;20043;-36
2022/03/03 03:42:02;;;;;;;13.70;9.27;;;;;;;1.55;67.09;101926.91;5133505;27;20140;-36
2022/03/03 03:44:27;;;;;;;9.77;8.57;;;;;;;1.53;67.47;101928.91;5133992;27;20035;-37
2022/03/03 03:46:52;;;;;;;13.47;8.93;;;;;;;1.46;67.25;101933.13;5133678;27;20098;-35
2022/03/03 03:49:18;;;;;;;14.07;9.10;;;;;;;1.52;67.38;101944.06;5133653;27;20027;-35
2022/03/03 03:51:43;;;;;;;11.57;9.97;;;;;;;1.48;68.16;101941.84;5133216;27;20031;-34
2022/03/03 03:54:08;;;;;;;11.13;8.77;;;;;;;1.34;67.19;101923.63;5133493;27;20110;-36
2022/03/03 03:56:34;;;;;;;12.00;9.40;;;;;;;1.41;67.86;101927.38;5133278;27;20041;-36
2022/03/03 03:58:59;;;;;;;12.93;9.68;;;;;;;1.43;66.91;101928.09;5133180;27;20027;-36
2022/03/03 04:01:26;;;;;;;11.50;9.20;;;;;;;1.43;67.51;101925.44;5133510;27;20424;-36
2022/03/03 04:03:53;;;;;;;12.48;9.45;;;;;;;1.41;67.32;101927.38;5133147;27;20031;-37
2022/03/03 04:06:18;;;;;;;10.30;9.10;;;;;;;1.41;67.78;101936.22;5133220;27;20031;-37
2022/03/03 04:08:43;;;;;;;13.30;9.93;;;;;;;1.37;66.79;101936.69;5133066;27;20144;-37
2022/03/03 04:11:09;;;;;;;11.10;9.00;;;;;;;1.48;69.32;101941.84;5133323;27;20023;-36
2022/03/03 04:13:34;;;;;;;13.67;9.73;;;;;;;1.47;67.90;101941.00;5133046;27;20332;-35
2022/03/03 04:15:59;;;;;;;13.07;10.97;;;;;;;1.35;68.23;101925.31;5133282;27;20027;-35
2022/03/03 04:18:24;;;;;;;15.27;10.73;;;;;;;1.42;67.29;101931.75;5133204;27;20117;-36
2022/03/03 04:20:50;;;;;;;13.20;10.20;;;;;;;1.42;67.39;101926.41;5133077;27;20135;-35
2022/03/03 04:23:17;;;;;;;13.00;9.87;;;;;;;1.40;68.61;101925.72;5131856;28;20055;-35
2022/03/03 04:25:43;;;;;;;12.65;9.82;;;;;;;1.38;69.16;101923.19;5132806;27;20019;-36
2022/03/03 04:28:09;;;;;;;13.73;9.65;;;;;;;1.23;67.90;101901.50;5132852;27;20134;-36
2022/03/03 04:30:34;;;;;;;11.52;9.73;;;;;;;1.11;67.99;101881.31;5133004;27;20019;-36
2022/03/03 04:33:00;;;;;;;16.00;10.53;;;;;;;1.22;69.39;101905.16;5134378;27;20041;-36
2022/03/03 04:35:25;;;;;;;12.13;9.70;;;;;;;1.32;69.83;101910.47;5136960;27;20035;-36
2022/03/03 04:37:51;;;;;;;13.37;9.30;;;;;;;1.27;68.30;101907.38;5098216;27;1074316;-36
2022/03/03 04:40:16;;;;;;;13.53;9.73;;;;;;;1.21;68.06;101911.44;5137809;27;20046;-36
2022/03/03 04:42:41;;;;;;;13.07;9.57;;;;;;;1.12;68.58;101898.97;5137779;27;20027;-36
2022/03/03 04:45:07;;;;;;;11.77;8.97;;;;;;;1.19;68.02;101908.09;5137781;27;20027;-36
2022/03/03 04:47:32;;;;;;;10.95;9.55;;;;;;;1.29;70.49;101905.41;5136336;27;20490;-35
2022/03/03 04:49:58;;;;;;;12.07;9.73;;;;;;;1.31;69.70;101891.94;5137670;27;20104;-35
2022/03/03 04:52:23;;;;;;;13.50;9.43;;;;;;;1.26;69.02;101901.19;5137274;27;20035;-35
2022/03/03 04:54:49;;;;;;;14.13;9.37;;;;;;;1.28;68.32;101893.06;5137484;27;20072;-35
2022/03/03 04:57:15;;;;;;;13.13;10.45;;;;;;;1.22;67.69;101899.81;5137371;27;20047;-35
2022/03/03 04:59:40;;;;;;;12.48;9.85;;;;;;;1.19;69.43;101896.59;5137362;27;20058;-35
2022/03/03 05:02:06;;;;;;;13.23;8.67;;;;;;;1.29;72.89;101894.75;5135664;27;20050;-35
2022/03/03 05:04:31;;;;;;;10.00;8.25;;;;;;;1.26;74.73;101890.53;5137504;27;20076;-36
2022/03/03 05:06:57;;;;;;;12.30;9.17;;;;;;;1.29;73.58;101903.56;5137447;27;20031;-36
2022/03/03 05:09:22;;;;;;;12.27;9.80;;;;;;;1.21;70.68;101898.13;5137946;27;20506;-36
2022/03/03 05:11:47;;;;;;;11.77;10.03;;;;;;;1.22;70.96;101907.81;5137242;27;20107;-36
2022/03/03 05:14:12;;;;;;;11.17;9.97;;;;;;;1.19;70.21;101908.09;5137603;27;20520;-36
2022/03/03 05:16:38;;;;;;;11.53;8.70;;;;;;;1.28;74.10;101907.22;5136939;27;20039;-36
2022/03/03 05:19:03;;;;;;;11.87;8.90;;;;;;;1.12;73.29;101880.31;5136707;27;20027;-36
2022/03/03 05:21:31;;;;;;;10.37;9.03;;;;;;;1.26;74.44;101903.00;5136967;27;20024;-35
2022/03/03 05:23:57;;;;;;;12.40;8.90;;;;;;;1.20;73.32;101907.09;5137180;27;20031;-36
2022/03/03 05:26:22;;;;;;;13.18;9.90;;;;;;;1.13;71.37;101895.34;5137190;27;20462;-36
2022/03/03 05:28:48;;;;;;;11.87;9.40;;;;;;;1.14;71.45;101904.19;5136945;27;20050;-36
2022/03/03 05:31:13;;;;;;;10.80;9.03;;;;;;;1.15;72.96;101901.38;5136942;27;20108;-36
2022/03/03 05:33:39;;;;;;;12.70;8.90;;;;;;;1.19;74.39;101910.75;5136739;27;20023;-36
2022/03/03 05:36:06;;;;;;;;;;;;;;;1.21;71.34;101908.78;5137291;27;20565;-36
2022/03/03 05:38:33;;;;;;;14.98;9.90;;;;;;;1.06;70.68;101915.53;5135105;27;19915;-36
2022/03/03 05:40:59;;;;;;;12.45;9.70;;;;;;;1.00;71.75;101906.31;5137048;27;20041;-36
2022/03/03 05:43:25;;;;;;;12.45;8.88;;;;;;;1.06;73.17;101915.53;5136408;27;20029;-36
2022/03/03 05:45:54;;;;;;;12.93;9.48;;;;;;;0.95;71.60;101902.38;5137157;27;20031;-36
2022/03/03 05:48:21;;;;;;;12.93;10.20;;;;;;;0.87;71.59;101907.56;5136614;27;20016;-36
2022/03/03 05:50:49;;;;;;;11.50;9.25;;;;;;;0.98;71.39;101921.59;5136695;27;20024;-36
2022/03/03 05:53:15;;;;;;;14.13;10.00;;;;;;;0.96;71.03;101912.06;5136143;27;20122;-36
2022/03/03 05:55:51;;;;;;;12.45;8.52;;;;;;;0.95;71.93;101907.72;5136566;27;20046;-36
2022/03/03 05:58:19;;;;;;;12.95;9.32;;;;;;;1.03;74.82;101907.84;5136571;27;20106;-36
2022/03/03 06:00:47;;;;;;;13.18;8.98;;;;;;;0.87;71.79;101904.91;5137100;27;20076;-36
2022/03/03 06:03:16;;;;;;;12.18;10.00;;;;;;;0.85;73.27;101893.56;5134808;27;20421;-36
2022/03/03 06:05:48;;;;;;;12.73;9.43;;;;;;;1.02;76.82;101904.34;5136205;27;20035;-36
2022/03/03 06:08:18;;;;;;;12.05;9.20;;;;;;;1.05;77.03;101902.38;5136455;27;20095;-36
2022/03/03 06:10:51;;;;;;;12.60;10.18;;;;;;;0.93;73.43;101902.53;5136082;27;20115;-36
2022/03/03 06:13:24;;;;;;;14.95;9.82;;;;;;;0.91;73.53;101904.50;5136561;27;20030;-36
2022/03/03 06:15:54;;;;;;;11.65;9.63;;;;;;;0.83;73.77;101903.50;5134300;27;20114;-36
2022/03/03 06:18:24;;;;;;;11.80;9.63;;;;;;;0.84;74.07;101898.06;5135754;27;20471;-36
2022/03/03 06:20:51;;;;;;;12.23;9.32;;;;;;;0.75;75.66;101880.25;5136458;27;20051;-36
2022/03/03 06:23:16;;;;;;;11.35;8.52;;;;;;;0.92;76.75;101908.81;5135778;27;20035;-36
2022/03/03 06:25:43;;;;;;;11.32;9.23;;;;;;;0.70;73.76;101891.34;5135557;27;20035;-36
2022/03/03 06:28:09;;;;;;;11.93;9.13;;;;;;;0.80;75.59;101894.00;5136416;27;20123;-36
2022/03/03 06:30:34;;;;;;;14.05;10.15;;;;;;;0.81;76.34;101906.31;5136151;27;20468;-36
2022/03/03 06:33:00;;;;;;;11.00;8.93;;;;;;;0.74;76.29;101890.06;5135354;27;20023;-36
2022/03/03 06:35:25;;;;;;;13.70;9.80;;;;;;;0.87;75.08;101910.22;5135588;27;20451;-36
2022/03/03 06:37:50;;;;;;;9.97;8.67;;;;;;;0.84;76.91;101890.06;5135774;27;20043;-36
2022/03/03 06:40:16;;;;;;;13.53;10.43;;;;;;;0.74;73.75;101892.75;5135908;27;20043;-36
2022/03/03 06:42:42;;;;;;;13.38;9.88;;;;;;;0.79;73.07;101912.78;5135664;27;20031;-36
2022/03/03 06:45:07;;;;;;;11.27;9.30;;;;;;;0.80;75.99;101904.66;5134004;27;20043;-36
2022/03/03 06:47:34;;;;;;;12.55;9.98;;;;;;;0.77;72.61;101918.22;5135956;27;20030;-36
2022/03/03 06:49:59;;;;;;;;;;;;;;;0.81;72.48;101918.78;5136191;27;20077;-36
2022/03/03 06:52:26;;;;;;;11.13;9.23;;;;;;;0.76;73.73;101922.72;5135418;27;19950;-37
2022/03/03 06:54:53;;;;;;;16.67;10.80;;;;;;;0.72;73.30;101923.13;5135505;27;20612;-34
2022/03/03 06:57:21;;;;;;;13.00;9.75;;;;;;;0.72;73.03;101910.66;5135602;27;20508;-36
2022/03/03 06:59:46;;;;;;;12.52;9.88;;;;;;;0.89;75.77;101917.13;5135892;27;20054;-37
2022/03/03 07:02:12;;;;;;;13.80;11.77;;;;;;;0.76;73.13;101914.72;5135529;27;20035;-37
2022/03/03 07:04:37;;;;;;;14.80;10.27;;;;;;;0.86;72.78;101921.88;5135467;27;20612;-36
2022/03/03 07:07:03;;;;;;;14.20;10.17;;;;;;;0.98;74.15;101926.94;5135330;27;20024;-37
2022/03/03 07:09:30;;;;;;;13.00;10.27;;;;;;;1.00;72.29;101926.78;5135600;27;20027;-37
2022/03/03 07:11:58;;;;;;;12.95;9.60;;;;;;;1.12;71.37;101933.59;5135123;27;20271;-34
2022/03/03 07:14:23;;;;;;;14.27;9.63;;;;;;;1.09;71.56;101925.91;5135533;27;20030;-34
2022/03/03 07:17:02;;;;;;;14.63;10.97;;;;;;;1.22;71.67;101937.13;5133673;27;20035;-37
2022/03/03 07:19:37;;;;;;;15.55;9.52;;;;;;;1.12;69.57;101920.28;5135233;27;20042;-35
2022/03/03 07:22:32;;;;;;;16.52;9.77;;;;;;;1.19;69.33;101915.25;5135444;27;20027;-35
2022/03/03 07:25:04;;;;;;;14.15;10.52;;;;;;;1.29;70.16;101935.56;5135590;27;20035;-35
2022/03/03 07:27:30;;;;;;;14.73;11.02;;;;;;;1.37;69.15;101944.66;5134761;27;20031;-36
2022/03/03 07:30:00;;;;;;;14.10;10.95;;;;;;;1.45;69.37;101931.44;5135417;27;20033;-36
2022/03/03 07:32:39;;;;;;;14.93;10.05;;;;;;;1.50;69.57;101940.69;5135103;27;20026;-36
2022/03/03 07:35:14;;;;;;;14.65;10.18;;;;;;;1.55;68.16;101932.25;5134524;27;20026;-36
2022/03/03 07:37:56;;;;;;;12.70;10.40;;;;;;;1.67;68.65;101935.59;5135508;27;20023;-36
2022/03/03 07:40:27;;;;;;;13.60;9.63;;;;;;;1.75;67.31;101933.03;5134472;27;20057;-36
2022/03/03 07:42:56;;;;;;;16.60;10.63;;;;;;;1.73;66.47;101935.84;5135332;27;20031;-36
2022/03/03 07:45:22;;;;;;;12.68;9.35;;;;;;;1.68;66.59;101908.78;5134506;27;20106;-36
2022/03/03 07:47:51;;;;;;;15.13;11.23;;;;;;;1.93;65.79;101936.59;5134810;27;20158;-36
2022/03/03 07:50:17;;;;;;;11.63;9.90;;;;;;;1.96;66.73;101940.81;5134759;27;20031;-36
2022/03/03 07:52:45;;;;;;;12.00;9.40;;;;;;;2.06;66.12;101942.44;5133114;27;20083;-35
2022/03/03 07:55:11;;;;;;;14.48;10.38;;;;;;;2.01;65.54;101917.19;5135047;27;20360;-35
2022/03/03 07:57:47;;;;;;;16.77;10.73;;;;;;;2.25;65.65;101938.00;5134355;27;20030;-35
2022/03/03 08:00:13;;;;;;;11.98;10.23;;;;;;;2.32;64.70;101941.72;5134019;27;20023;-35
2022/03/03 08:02:41;;;;;;;14.15;9.93;;;;;;;2.47;65.52;101950.06;5134268;27;20030;-35
2022/03/03 08:05:07;;;;;;;13.60;10.35;;;;;;;2.51;63.82;101940.75;5134569;27;20035;-35
2022/03/03 08:07:44;;;;;;;13.35;9.63;;;;;;;2.62;63.24;101948.53;5133888;27;20023;-36
2022/03/03 08:10:11;;;;;;;13.57;10.73;;;;;;;2.71;63.87;101936.09;5134552;27;20376;-36
2022/03/03 08:12:37;;;;;;;13.25;9.32;;;;;;;2.87;63.36;101952.28;5133878;27;20030;-35
2022/03/03 08:15:04;;;;;;;14.35;9.27;;;;;;;3.02;62.48;101955.25;5134568;27;20027;-35
2022/03/03 08:17:33;;;;;;;13.77;9.35;;;;;;;3.11;61.34;101954.31;5134671;27;20031;-36
2022/03/03 08:20:00;;;;;;;14.00;10.02;;;;;;;3.16;61.33;101952.00;5134552;27;20046;-36
2022/03/03 08:22:26;;;;;;;17.00;9.98;;;;;;;3.26;61.16;101950.09;5132865;28;20460;-35
2022/03/03 08:24:55;;;;;;;12.38;9.40;;;;;;;3.38;61.22;101949.84;5134967;27;20042;-35
2022/03/03 08:27:23;;;;;;;13.25;9.70;;;;;;;3.50;61.43;101948.56;5133681;27;20114;-35
2022/03/03 08:29:49;;;;;;;16.52;10.45;;;;;;;3.59;59.44;101947.63;5133549;28;20047;-36
2022/03/03 08:32:16;;;;;;;10.65;8.60;;;;;;;3.63;59.85;101926.75;5134769;27;20023;-35
2022/03/03 08:34:47;;;;;;;10.32;8.77;;;;;;;3.81;58.24;101947.09;5133885;27;20026;-35
2022/03/03 08:37:36;;;;;;;10.68;8.50;;;;;;;3.88;57.68;101941.94;5134059;27;20027;-35
2022/03/03 08:40:02;;;;;;;11.50;8.90;;;;;;;3.96;58.25;101947.34;5133797;27;20047;-35
2022/03/03 08:42:38;;;;;;;12.48;9.05;;;;;;;4.00;56.99;101945.16;5133962;27;20031;-36
2022/03/03 08:45:06;;;;;;;14.23;9.13;;;;;;;3.99;58.80;101922.91;5133966;27;20028;-35
2022/03/03 08:47:32;;;;;;;12.23;9.23;;;;;;;4.07;57.09;101935.50;5133863;27;20375;-36
2022/03/03 08:50:01;;;;;;;11.63;9.23;;;;;;;4.18;57.54;101945.91;5133676;27;20035;-36
2022/03/03 08:52:27;;;;;;;13.07;10.07;;;;;;;4.21;56.87;101931.38;5133747;27;20027;-36
2022/03/03 08:54:53;;;;;;;12.07;9.63;;;;;;;4.29;56.93;101929.53;5133769;27;20059;-36
2022/03/03 08:57:19;;;;;;;15.38;10.73;;;;;;;4.37;56.17;101932.22;5133818;27;20375;-35
2022/03/03 08:59:44;;;;;;;10.20;8.53;;;;;;;4.45;57.23;101918.03;5134084;27;20031;-36
2022/03/03 09:02:14;;;;;;;9.83;8.00;;;;;;;4.51;55.76;101913.84;5133795;27;20055;-36
2022/03/03 09:04:39;;;;;;;11.50;8.85;;;;;;;4.67;55.18;101937.97;5133338;27;20039;-36
2022/03/03 09:07:04;;;;;;;10.37;8.13;;;;;;;4.75;55.49;101934.50;5134285;27;20023;-36
2022/03/03 09:09:30;;;;;;;9.73;8.33;;;;;;;4.81;56.34;101931.13;5134025;27;20459;-36
2022/03/03 09:11:55;;;;;;;12.00;8.93;;;;;;;4.81;53.71;101931.97;5133989;27;20364;-36
2022/03/03 09:14:21;;;;;;;10.80;8.67;;;;;;;4.96;56.17;101936.66;5133862;27;20494;-35
2022/03/03 09:16:46;;;;;;;10.10;8.03;;;;;;;5.08;55.31;101929.97;5133829;27;20038;-35
2022/03/03 09:19:11;;;;;;;12.67;8.40;;;;;;;5.08;53.83;101920.09;5136306;27;20244;-36
2022/03/03 09:21:37;;;;;;;9.97;8.53;;;;;;;5.22;54.94;101917.72;5136991;27;20126;-36
2022/03/03 09:24:02;;;;;;;13.73;8.63;;;;;;;5.29;53.62;101916.88;5137566;27;20027;-36
2022/03/03 09:26:28;;;;;;;13.00;7.97;;;;;;;5.49;53.74;101929.91;5137575;27;20360;-36
2022/03/03 09:28:53;;;;;;;11.00;8.23;;;;;;;5.59;53.43;101928.72;5137183;27;20287;-36
2022/03/03 09:31:18;;;;;;;12.57;7.83;;;;;;;5.58;51.90;101915.47;5137729;27;20035;-36
2022/03/03 09:33:44;;;;;;;10.07;7.77;;;;;;;5.75;52.08;101921.63;5136860;27;20276;-36
2022/03/03 09:36:09;;;;;;;10.13;8.07;;;;;;;5.82;51.85;101914.56;5137096;27;20379;-37
2022/03/03 09:38:35;;;;;;;10.05;8.00;;;;;;;5.94;53.70;101918.56;5136794;27;20102;-37
2022/03/03 09:41:00;;;;;;;9.83;8.37;;;;;;;6.03;50.49;101908.63;5137401;27;20043;-37
2022/03/03 09:43:27;;;;;;;10.70;7.93;;;;;;;6.13;50.13;101914.63;5137099;27;20031;-37
2022/03/03 09:45:53;;;;;;;13.63;8.10;;;;;;;6.24;52.03;101910.69;5136974;27;20284;-37
2022/03/03 09:48:18;;;;;;;12.00;8.43;;;;;;;6.37;51.12;101906.41;5136582;27;20065;-36
2022/03/03 09:50:44;;;;;;;11.47;8.80;;;;;;;6.42;49.42;101909.41;5136821;27;20031;-37
2022/03/03 09:53:16;;;;;;;11.77;8.80;;;;;;;6.49;49.68;101911.38;5136973;27;20026;-37
2022/03/03 09:55:43;;;;;;;9.82;7.32;;;;;;;6.67;49.38;101917.31;5137168;27;20055;-37
2022/03/03 09:58:09;;;;;;;10.93;8.90;;;;;;;6.75;48.86;101911.03;5136543;27;20039;-37
2022/03/03 10:00:39;;;;;;;10.15;7.72;;;;;;;6.76;48.46;101913.53;5137417;27;20042;-37
2022/03/03 10:03:10;;;;;;;10.68;7.93;;;;;;;6.87;49.84;101901.53;5136534;27;20102;-35
2022/03/03 10:05:39;;;;;;;14.80;8.85;;;;;;;6.96;48.99;101912.03;5136940;27;20055;-36
2022/03/03 10:08:06;;;;;;;11.98;8.80;;;;;;;7.02;48.65;101912.31;5136041;27;20030;-36
2022/03/03 10:10:33;;;;;;;13.25;8.13;;;;;;;7.03;49.70;101914.00;5136649;27;20027;-36
2022/03/03 10:12:58;;;;;;;11.02;8.52;;;;;;;7.10;49.04;101902.34;5136317;27;20054;-36
2022/03/03 10:15:26;;;;;;;13.00;8.00;;;;;;;7.25;49.96;101910.44;5136346;27;20062;-37
2022/03/03 10:18:02;;;;;;;10.52;7.93;;;;;;;7.31;48.19;101903.47;5136242;27;20033;-37
2022/03/03 10:20:29;;;;;;;;;;;;;;;7.42;48.94;101901.19;5136913;27;20039;-37
2022/03/03 10:22:57;;;;;;;10.48;8.13;;;;;;;7.45;46.60;101900.81;5136377;27;19907;-37
2022/03/03 10:25:44;;;;;;;9.93;8.32;;;;;;;7.51;47.65;101893.84;5136238;27;20034;-37
2022/03/03 10:28:19;;;;;;;11.18;8.48;;;;;;;7.56;46.55;101893.28;5135960;27;20072;-37
2022/03/03 10:31:03;;;;;;;9.80;7.65;;;;;;;7.67;47.11;101887.47;5135048;27;20042;-36
2022/03/03 10:33:31;;;;;;;9.07;7.15;;;;;;;7.80;47.17;101884.09;5136514;27;20122;-36
2022/03/03 10:36:00;;;;;;;9.75;7.65;;;;;;;7.83;45.93;101881.03;5135967;27;20106;-36
2022/03/03 10:38:27;;;;;;;10.27;7.47;;;;;;;7.95;44.78;101895.69;5135893;27;20097;-36
2022/03/03 10:40:53;;;;;;;13.63;7.40;;;;;;;8.09;44.87;101897.50;5136007;27;20390;-37
2022/03/03 10:43:18;;;;;;;11.52;7.80;;;;;;;8.13;44.81;101869.16;5135456;27;20039;-36
2022/03/03 10:46:00;;;;;;;9.73;7.70;;;;;;;8.38;43.97;101890.41;5135790;27;20066;-36
2022/03/03 10:48:26;;;;;;;10.65;7.70;;;;;;;8.42;43.19;101889.00;5135521;27;20110;-36
2022/03/03 10:50:58;;;;;;;10.27;7.20;;;;;;;8.46;43.42;101887.59;5136007;27;20486;-36
2022/03/03 10:53:25;;;;;;;9.95;7.20;;;;;;;8.52;42.16;101893.06;5136430;27;20027;-36
2022/03/03 10:56:08;;;;;;;7.72;6.90;;;;;;;8.51;41.66;101888.69;5135482;27;20586;-36
2022/03/03 10:58:43;;;;;;;9.55;7.95;;;;;;;8.54;42.75;101887.50;5135811;27;20051;-36
2022/03/03 11:01:08;;;;;;;8.13;6.72;;;;;;;8.50;41.02;101883.50;5135533;27;20072;-36
2022/03/03 11:03:35;;;;;;;10.27;7.32;;;;;;;8.60;41.27;101884.00;5135142;27;20035;-36
2022/03/03 11:06:02;;;;;;;8.43;6.60;;;;;;;8.67;41.77;101884.06;5135708;27;20038;-36
2022/03/03 11:08:28;;;;;;;7.43;6.65;;;;;;;8.57;39.83;101880.88;5135301;27;20027;-36
2022/03/03 11:10:54;;;;;;;;;;;;;;;8.73;41.04;101883.28;5135999;27;20102;-36
2022/03/03 11:13:19;;;;;;;8.63;6.40;;;;;;;8.70;39.16;101870.22;5134898;27;19973;-36
2022/03/03 11:15:45;;;;;;;7.82;6.22;;;;;;;8.88;40.53;101875.97;5135944;27;20288;-36
2022/03/03 11:18:11;;;;;;;7.82;6.30;;;;;;;9.03;41.07;101876.72;5135105;27;20030;-36
2022/03/03 11:20:37;;;;;;;9.43;6.78;;;;;;;9.09;40.39;101863.47;5135151;27;20023;-36
2022/03/03 11:23:02;;;;;;;8.00;6.70;;;;;;;9.09;39.69;101863.47;5134876;27;20024;-37
2022/03/03 11:25:34;;;;;;;10.20;6.90;;;;;;;9.17;39.94;101871.41;5135437;27;20038;-37